createdAt,value
2017-08-09T00:00:42.185Z,14.50
2017-08-09T00:03:08.537Z,14.60
2017-08-09T00:05:34.883Z,14.60
2017-08-09T00:08:01.236Z,14.70
2017-08-09T00:10:27.597Z,14.70
2017-08-09T00:12:53.915Z,14.60
2017-08-09T00:15:20.287Z,14.70
2017-08-09T00:17:46.671Z,14.50
2017-08-09T00:20:12.992Z,14.70
2017-08-09T00:22:40.314Z,14.70
2017-08-09T00:25:06.916Z,14.40
2017-08-09T00:27:33.570Z,14.70
2017-08-09T00:30:00.147Z,14.70
2017-08-09T00:32:26.689Z,14.70
2017-08-09T00:34:54.459Z,14.70
2017-08-09T00:37:21.319Z,14.90
2017-08-09T00:39:47.883Z,14.70
2017-08-09T00:42:14.496Z,14.70
2017-08-09T00:44:41.061Z,14.80
2017-08-09T00:47:08.086Z,14.80
2017-08-09T00:49:34.677Z,14.90
2017-08-09T00:52:01.269Z,14.70
2017-08-09T00:54:27.867Z,14.70
2017-08-09T00:56:55.620Z,14.70
2017-08-09T00:59:22.973Z,14.60
2017-08-09T01:01:49.533Z,14.30
2017-08-09T01:04:16.253Z,14.60
2017-08-09T01:06:43.321Z,14.50
2017-08-09T01:09:09.939Z,14.60
2017-08-09T01:11:36.856Z,14.80
2017-08-09T01:14:03.474Z,14.60
2017-08-09T01:16:30.078Z,14.70
2017-08-09T01:18:56.664Z,14.80
2017-08-09T01:21:23.923Z,14.90
2017-08-09T01:23:50.565Z,14.90
2017-08-09T01:26:17.137Z,15.00
2017-08-09T01:28:43.687Z,15.10
2017-08-09T01:31:10.303Z,15.10
2017-08-09T01:33:37.485Z,15.10
2017-08-09T01:36:04.800Z,15.00
2017-08-09T01:38:31.780Z,15.00
2017-08-09T01:40:59.285Z,15.00
2017-08-09T01:43:25.661Z,15.00
2017-08-09T01:45:52.093Z,14.90
2017-08-09T01:48:19.677Z,14.80
2017-08-09T01:50:46.257Z,14.90
2017-08-09T01:53:12.644Z,14.90
2017-08-09T01:55:39.768Z,14.90
2017-08-09T01:58:06.136Z,14.90
2017-08-09T02:00:32.854Z,14.80
2017-08-09T02:02:59.533Z,15.00
2017-08-09T02:05:26.163Z,15.00
2017-08-09T02:07:52.780Z,15.00
2017-08-09T02:10:19.523Z,15.10
2017-08-09T02:12:46.117Z,15.10
2017-08-09T02:15:12.720Z,15.20
2017-08-09T02:17:39.317Z,15.20
2017-08-09T02:20:05.961Z,15.20
2017-08-09T02:22:32.540Z,15.20
2017-08-09T02:24:59.171Z,15.30
2017-08-09T02:27:25.803Z,15.30
2017-08-09T02:29:52.515Z,15.30
2017-08-09T02:32:19.556Z,15.30
2017-08-09T02:34:46.094Z,15.30
2017-08-09T02:37:12.664Z,15.30
2017-08-09T02:39:39.311Z,15.40
2017-08-09T02:42:05.915Z,15.40
2017-08-09T02:44:32.457Z,15.70
2017-08-09T02:46:59.001Z,15.40
2017-08-09T02:49:25.612Z,15.50
2017-08-09T02:51:52.172Z,15.40
2017-08-09T02:54:18.731Z,15.50
2017-08-09T02:56:52.088Z,15.50
2017-08-09T02:59:18.449Z,15.50
2017-08-09T03:01:44.781Z,15.50
2017-08-09T03:04:11.168Z,15.60
2017-08-09T03:06:37.571Z,15.60
2017-08-09T03:09:03.916Z,15.70
2017-08-09T03:11:30.276Z,15.70
2017-08-09T03:13:56.793Z,15.80
2017-08-09T03:16:23.332Z,15.80
2017-08-09T03:18:50.531Z,15.80
2017-08-09T03:21:17.110Z,15.90
2017-08-09T03:23:43.673Z,15.90
2017-08-09T03:26:10.224Z,16.00
2017-08-09T03:28:36.763Z,16.10
2017-08-09T03:31:03.354Z,16.10
2017-08-09T03:33:29.936Z,15.90
2017-08-09T03:35:56.504Z,16.00
2017-08-09T03:38:23.893Z,15.70
2017-08-09T03:40:50.457Z,15.90
2017-08-09T03:43:17.024Z,15.80
2017-08-09T03:45:44.484Z,16.00
2017-08-09T03:48:11.090Z,16.10
2017-08-09T03:50:37.662Z,16.10
2017-08-09T03:53:05.053Z,16.10
2017-08-09T03:55:31.920Z,16.10
2017-08-09T03:57:58.635Z,16.10
2017-08-09T04:00:24.995Z,16.10
2017-08-09T04:02:51.353Z,16.00
2017-08-09T04:05:18.320Z,16.00
2017-08-09T04:07:44.776Z,16.00
2017-08-09T04:10:11.349Z,16.10
2017-08-09T04:12:38.745Z,16.00
2017-08-09T04:15:05.366Z,16.10
2017-08-09T04:17:31.933Z,15.80
2017-08-09T04:19:58.558Z,16.10
2017-08-09T04:22:25.135Z,16.10
2017-08-09T04:24:51.713Z,16.20
2017-08-09T04:27:18.316Z,16.20
2017-08-09T04:29:44.885Z,16.40
2017-08-09T04:32:12.276Z,16.30
2017-08-09T04:34:38.908Z,16.30
2017-08-09T04:37:05.543Z,16.30
2017-08-09T04:39:32.080Z,16.30
2017-08-09T04:41:58.602Z,16.40
2017-08-09T04:44:25.197Z,16.40
2017-08-09T04:46:51.797Z,16.40
2017-08-09T04:49:19.153Z,16.40
2017-08-09T04:51:45.758Z,16.40
2017-08-09T04:54:12.292Z,16.40
2017-08-09T04:56:38.856Z,16.40
2017-08-09T04:59:05.516Z,16.40
2017-08-09T05:01:32.204Z,16.50
2017-08-09T05:03:58.871Z,16.40
2017-08-09T05:06:25.454Z,16.50
2017-08-09T05:08:53.700Z,16.50
2017-08-09T05:11:20.299Z,16.50
2017-08-09T05:13:46.892Z,16.40
2017-08-09T05:16:13.538Z,16.40
2017-08-09T05:18:40.115Z,16.40
2017-08-09T05:21:11.121Z,16.40
2017-08-09T05:23:37.688Z,16.40
2017-08-09T05:26:04.351Z,16.60
2017-08-09T05:28:31.860Z,16.60
2017-08-09T05:30:58.618Z,16.50
2017-08-09T05:33:25.224Z,16.50
2017-08-09T05:35:51.833Z,16.50
2017-08-09T05:38:18.452Z,16.50
2017-08-09T05:40:45.058Z,16.50
2017-08-09T05:43:11.698Z,16.50
2017-08-09T05:45:38.433Z,16.50
2017-08-09T05:48:05.065Z,16.50
2017-08-09T05:50:31.686Z,16.60
2017-08-09T05:52:58.384Z,16.60
2017-08-09T05:55:24.996Z,16.60
2017-08-09T05:57:51.653Z,16.70
2017-08-09T06:00:19.120Z,16.80
2017-08-09T06:02:46.448Z,16.70
2017-08-09T06:05:13.108Z,16.70
2017-08-09T06:07:39.740Z,16.70
2017-08-09T06:10:06.352Z,16.70
2017-08-09T06:12:33.081Z,16.80
2017-08-09T06:14:59.660Z,16.70
2017-08-09T06:17:26.228Z,16.60
2017-08-09T06:19:53.084Z,16.70
2017-08-09T06:22:19.669Z,16.60
2017-08-09T06:24:46.284Z,16.70
2017-08-09T06:27:12.881Z,16.70
2017-08-09T06:29:39.617Z,16.70
2017-08-09T06:32:06.247Z,16.60
2017-08-09T06:34:32.861Z,16.70
2017-08-09T06:36:59.532Z,16.60
2017-08-09T06:39:26.173Z,16.70
2017-08-09T06:41:52.761Z,16.80
2017-08-09T06:44:20.193Z,16.70
2017-08-09T06:46:46.815Z,16.70
2017-08-09T06:49:14.185Z,16.60
2017-08-09T06:51:40.849Z,16.60
2017-08-09T06:54:07.457Z,16.50
2017-08-09T06:56:35.760Z,16.50
2017-08-09T06:59:02.404Z,16.60
2017-08-09T07:01:28.997Z,16.60
2017-08-09T07:03:55.717Z,16.80
2017-08-09T07:06:22.405Z,16.80
2017-08-09T07:08:49.012Z,16.90
2017-08-09T07:11:16.793Z,17.00
2017-08-09T07:13:43.243Z,17.00
2017-08-09T07:16:10.408Z,17.20
2017-08-09T07:18:36.793Z,17.10
2017-08-09T07:21:03.169Z,17.20
2017-08-09T07:23:29.597Z,17.20
2017-08-09T07:28:27.381Z,17.10
2017-08-09T07:30:55.000Z,17.40
2017-08-09T07:33:29.339Z,17.40
2017-08-09T07:35:55.927Z,17.40
2017-08-09T07:38:22.493Z,17.30
2017-08-09T07:40:49.017Z,17.30
2017-08-09T07:43:15.390Z,17.40
2017-08-09T07:45:41.779Z,17.60
2017-08-09T07:48:08.162Z,17.80
2017-08-09T07:50:34.622Z,17.70
2017-08-09T07:53:01.028Z,17.90
2017-08-09T07:55:27.383Z,18.00
2017-08-09T07:57:53.743Z,18.00
2017-08-09T08:00:20.124Z,18.20
2017-08-09T08:02:46.495Z,18.20
2017-08-09T08:08:11.452Z,18.10
2017-08-09T08:10:37.951Z,18.20
2017-08-09T08:13:04.336Z,18.10
2017-08-09T08:15:30.707Z,18.30
2017-08-09T08:17:57.165Z,18.40
2017-08-09T08:20:23.723Z,18.50
2017-08-09T08:22:50.547Z,18.80
2017-08-09T08:25:18.921Z,18.70
2017-08-09T08:27:49.137Z,19.60
2017-08-09T08:30:15.978Z,21.10
2017-08-09T08:35:15.221Z,21.00
2017-08-09T08:37:43.542Z,20.50
2017-08-09T08:40:10.315Z,20.40
2017-08-09T08:42:41.864Z,20.90
2017-08-09T08:45:12.431Z,21.00
2017-08-09T08:47:48.826Z,21.30
2017-08-09T08:50:21.916Z,21.70
2017-08-09T08:52:48.396Z,21.20
2017-08-09T08:55:23.855Z,20.60
2017-08-09T08:57:50.647Z,20.60
2017-08-09T09:00:17.499Z,20.20
2017-08-09T09:02:44.139Z,20.30
2017-08-09T09:05:12.051Z,20.20
2017-08-09T09:07:39.890Z,20.10
2017-08-09T09:10:06.780Z,20.10
2017-08-09T09:12:33.622Z,20.20
2017-08-09T09:17:38.191Z,20.00
2017-08-09T09:20:04.930Z,19.90
2017-08-09T09:22:31.721Z,20.00
2017-08-09T09:24:58.431Z,20.00
2017-08-09T09:27:29.256Z,20.20
2017-08-09T09:29:55.914Z,19.90
2017-08-09T09:32:22.666Z,20.00
2017-08-09T09:34:49.269Z,20.20
2017-08-09T09:37:15.995Z,20.30
2017-08-09T09:39:52.204Z,20.20
2017-08-09T09:42:19.649Z,20.10
2017-08-09T09:44:46.283Z,20.00
2017-08-09T09:47:12.976Z,20.10
2017-08-09T09:49:39.734Z,20.10
2017-08-09T09:52:12.831Z,20.10
2017-08-09T09:54:45.732Z,19.90
2017-08-09T09:57:12.362Z,20.20
2017-08-09T09:59:39.128Z,20.20
2017-08-09T10:02:05.784Z,20.20
2017-08-09T10:04:32.560Z,20.30
2017-08-09T10:07:02.322Z,19.80
2017-08-09T10:09:29.011Z,19.80
2017-08-09T10:11:55.882Z,20.00
2017-08-09T10:14:22.569Z,20.10
2017-08-09T10:16:49.272Z,20.00
2017-08-09T10:19:15.934Z,19.80
2017-08-09T10:21:44.527Z,20.20
2017-08-09T10:24:11.194Z,20.20
2017-08-09T10:26:37.754Z,20.30
2017-08-09T10:29:04.327Z,20.50
2017-08-09T10:31:31.203Z,20.30
2017-08-09T10:33:57.793Z,20.50
2017-08-09T10:36:28.143Z,20.80
2017-08-09T10:38:54.807Z,21.00
2017-08-09T10:41:22.093Z,20.90
2017-08-09T10:43:48.721Z,21.00
2017-08-09T10:46:15.284Z,21.00
2017-08-09T10:48:41.886Z,20.80
2017-08-09T10:51:11.164Z,20.60
2017-08-09T10:56:11.546Z,20.70
2017-08-09T10:58:38.064Z,20.60
2017-08-09T11:01:04.639Z,20.70
2017-08-09T11:03:33.179Z,20.60
2017-08-09T11:05:59.826Z,20.90
2017-08-09T11:08:27.416Z,20.90
2017-08-09T11:10:57.227Z,20.90
2017-08-09T11:13:23.933Z,21.20
2017-08-09T11:15:50.674Z,21.20
2017-08-09T11:18:17.429Z,21.00
2017-08-09T11:20:47.253Z,21.10
2017-08-09T11:23:13.794Z,21.00
2017-08-09T11:25:40.427Z,21.10
2017-08-09T11:28:07.176Z,21.20
2017-08-09T11:30:33.808Z,21.40
2017-08-09T11:33:00.313Z,21.30
2017-08-09T11:35:27.675Z,21.50
2017-08-09T11:37:57.448Z,21.70
2017-08-09T11:40:24.047Z,21.60
2017-08-09T11:42:50.719Z,21.40
2017-08-09T11:45:17.544Z,21.60
2017-08-09T11:47:44.198Z,21.50
2017-08-09T11:50:10.989Z,21.40
2017-08-09T11:52:41.267Z,21.40
2017-08-09T11:55:07.899Z,21.50
2017-08-09T11:57:40.652Z,21.60
2017-08-09T12:00:11.060Z,21.60
2017-08-09T12:02:37.603Z,21.60
2017-08-09T12:05:08.345Z,21.80
2017-08-09T12:07:35.215Z,22.00
2017-08-09T12:10:01.876Z,22.00
2017-08-09T12:12:29.664Z,22.10
2017-08-09T12:14:56.267Z,22.10
2017-08-09T12:17:23.071Z,22.20
2017-08-09T12:22:21.431Z,22.20
2017-08-09T12:24:48.177Z,22.30
2017-08-09T12:27:14.759Z,22.30
2017-08-09T12:29:41.188Z,22.40
2017-08-09T12:32:07.892Z,22.30
2017-08-09T12:34:34.473Z,22.10
2017-08-09T12:37:01.139Z,22.20
2017-08-09T12:39:27.687Z,22.40
2017-08-09T12:41:54.200Z,22.60
2017-08-09T12:44:20.769Z,22.70
2017-08-09T12:46:47.313Z,22.20
2017-08-09T12:49:13.876Z,22.20
2017-08-09T12:51:40.438Z,22.00
2017-08-09T12:54:07.820Z,22.40
2017-08-09T12:56:34.572Z,22.40
2017-08-09T12:59:01.175Z,22.30
2017-08-09T13:01:27.727Z,22.30
2017-08-09T13:03:54.384Z,22.30
2017-08-09T13:06:21.040Z,22.40
2017-08-09T13:08:47.576Z,22.40
2017-08-09T13:11:14.171Z,22.60
2017-08-09T13:13:40.741Z,22.60
2017-08-09T13:16:07.289Z,22.70
2017-08-09T13:18:36.871Z,22.60
2017-08-09T13:21:03.433Z,22.50
2017-08-09T13:23:30.804Z,22.40
2017-08-09T13:25:58.312Z,22.50
2017-08-09T13:28:24.874Z,22.50
2017-08-09T13:30:52.214Z,22.50
2017-08-09T13:33:18.757Z,22.50
2017-08-09T13:35:45.284Z,22.50
2017-08-09T13:38:17.127Z,22.40
2017-08-09T13:40:43.600Z,22.30
2017-08-09T13:43:10.888Z,22.10
2017-08-09T13:45:37.711Z,22.10
2017-08-09T13:48:04.274Z,22.20
2017-08-09T13:50:30.852Z,22.00
2017-08-09T13:53:00.191Z,21.80
2017-08-09T13:55:27.478Z,22.50
2017-08-09T13:57:53.782Z,22.40
2017-08-09T14:00:27.302Z,22.30
2017-08-09T14:02:54.398Z,22.30
2017-08-09T14:05:20.987Z,22.30
2017-08-09T14:07:47.349Z,22.40
2017-08-09T14:10:13.656Z,22.40
2017-08-09T14:12:40.105Z,22.20
2017-08-09T14:15:06.428Z,22.40
2017-08-09T14:17:33.881Z,22.70
2017-08-09T14:20:00.253Z,22.70
2017-08-09T14:22:26.608Z,22.80
2017-08-09T14:24:52.948Z,22.80
2017-08-09T14:27:19.275Z,22.80
2017-08-09T14:29:45.709Z,22.80
2017-08-09T14:32:13.542Z,23.00
2017-08-09T14:34:40.589Z,23.10
2017-08-09T14:37:07.288Z,23.30
2017-08-09T14:39:33.916Z,23.20
2017-08-09T14:42:05.087Z,23.20
2017-08-09T14:44:32.507Z,23.20
2017-08-09T14:47:05.658Z,23.20
2017-08-09T14:49:32.005Z,23.30
2017-08-09T14:52:01.957Z,23.30
2017-08-09T14:54:28.317Z,23.10
2017-08-09T14:56:54.635Z,23.10
2017-08-09T14:59:21.018Z,22.80
2017-08-09T15:01:47.507Z,22.60
2017-08-09T15:04:13.838Z,22.70
2017-08-09T15:06:47.655Z,23.10
2017-08-09T15:09:13.995Z,23.30
2017-08-09T15:11:40.418Z,23.30
2017-08-09T15:14:06.849Z,23.30
2017-08-09T15:16:33.218Z,23.10
2017-08-09T15:18:59.599Z,22.90
2017-08-09T15:21:25.913Z,23.00
2017-08-09T15:23:52.268Z,22.80
2017-08-09T15:26:18.704Z,22.80
2017-08-09T15:28:45.056Z,22.90
2017-08-09T15:31:11.624Z,22.90
2017-08-09T15:33:38.948Z,23.00
2017-08-09T15:36:05.556Z,23.00
2017-08-09T15:38:31.920Z,23.00
2017-08-09T15:40:58.281Z,23.00
2017-08-09T15:43:24.681Z,23.00
2017-08-09T15:45:51.024Z,23.10
2017-08-09T15:48:17.415Z,23.10
2017-08-09T15:50:43.869Z,23.10
2017-08-09T15:53:10.220Z,23.10
2017-08-09T15:55:36.608Z,23.10
2017-08-09T15:58:03.178Z,23.00
2017-08-09T16:00:30.946Z,23.00
2017-08-09T16:02:57.266Z,23.00
2017-08-09T16:05:23.624Z,22.90
2017-08-09T16:07:51.432Z,22.80
2017-08-09T16:10:18.137Z,22.80
2017-08-09T16:12:44.675Z,22.90
2017-08-09T16:15:11.444Z,22.90
2017-08-09T16:17:38.015Z,23.00
2017-08-09T16:20:04.625Z,22.90
2017-08-09T16:22:31.215Z,23.10
2017-08-09T16:24:57.763Z,23.10
2017-08-09T16:27:24.660Z,23.00
2017-08-09T16:29:51.219Z,22.80
2017-08-09T16:32:17.809Z,22.90
2017-08-09T16:34:44.485Z,22.90
2017-08-09T16:37:12.535Z,23.00
2017-08-09T16:39:42.940Z,22.70
2017-08-09T16:42:09.268Z,22.80
2017-08-09T16:44:35.602Z,22.90
2017-08-09T16:47:02.008Z,22.80
2017-08-09T16:49:34.366Z,22.80
2017-08-09T16:52:00.968Z,22.70
2017-08-09T16:54:27.544Z,22.70
2017-08-09T16:56:54.877Z,22.50
2017-08-09T16:59:21.407Z,22.50
2017-08-09T17:01:48.653Z,22.40
2017-08-09T17:04:15.573Z,22.40
2017-08-09T17:06:42.090Z,22.30
2017-08-09T17:11:44.756Z,22.20
2017-08-09T17:14:11.080Z,22.30
2017-08-09T17:16:37.917Z,22.10
2017-08-09T17:19:05.143Z,22.10
2017-08-09T17:21:32.124Z,22.00
2017-08-09T17:23:58.922Z,22.00
2017-08-09T17:26:27.465Z,21.90
2017-08-09T17:28:54.328Z,21.90
2017-08-09T17:31:21.674Z,21.70
2017-08-09T17:33:48.033Z,21.80
2017-08-09T17:36:14.356Z,21.80
2017-08-09T17:38:40.877Z,21.70
2017-08-09T17:44:07.010Z,21.80
2017-08-09T17:46:33.323Z,21.70
2017-08-09T17:48:59.622Z,21.60
2017-08-09T17:51:26.018Z,21.60
2017-08-09T17:53:52.312Z,21.40
2017-08-09T17:56:18.716Z,21.40
2017-08-09T17:58:45.024Z,21.30
2017-08-09T18:01:11.437Z,21.10
2017-08-09T18:03:37.941Z,20.90
2017-08-09T18:06:04.503Z,20.90
2017-08-09T18:08:31.473Z,20.80
2017-08-09T18:10:58.040Z,20.80
2017-08-09T18:13:44.801Z,20.60
2017-08-09T18:16:22.241Z,20.80
2017-08-09T18:18:48.857Z,20.80
2017-08-09T18:21:17.160Z,20.70
2017-08-09T18:23:45.261Z,20.60
2017-08-09T18:26:11.960Z,20.50
2017-08-09T18:28:38.506Z,20.80
2017-08-09T18:31:05.925Z,20.70
2017-08-09T18:33:32.289Z,20.60
2017-08-09T18:35:58.828Z,20.70
2017-08-09T18:38:25.196Z,20.80
2017-08-09T18:40:51.772Z,20.70
2017-08-09T18:43:18.225Z,20.70
2017-08-09T18:45:44.841Z,20.60
2017-08-09T18:48:11.669Z,20.40
2017-08-09T18:50:38.009Z,20.30
2017-08-09T18:53:04.332Z,20.20
2017-08-09T18:55:31.303Z,20.10
2017-08-09T18:57:57.624Z,20.00
2017-08-09T19:00:23.998Z,20.00
2017-08-09T19:02:50.312Z,20.00
2017-08-09T19:05:16.877Z,19.90
2017-08-09T19:07:43.280Z,19.80
2017-08-09T19:10:09.760Z,19.80
2017-08-09T19:12:36.344Z,19.80
2017-08-09T19:15:02.963Z,19.80
2017-08-09T19:17:29.478Z,19.70
2017-08-09T19:19:56.010Z,19.50
2017-08-09T19:22:22.611Z,19.40
2017-08-09T19:24:49.183Z,19.20
2017-08-09T19:27:15.830Z,19.00
2017-08-09T19:29:42.390Z,19.00
2017-08-09T19:32:09.340Z,19.00
2017-08-09T19:34:35.896Z,19.10
2017-08-09T19:37:02.409Z,19.00
2017-08-09T19:39:28.972Z,19.00
2017-08-09T19:41:55.585Z,18.90
2017-08-09T19:44:22.889Z,18.80
2017-08-09T19:46:49.712Z,18.80
2017-08-09T19:49:16.460Z,18.80
2017-08-09T19:51:42.980Z,18.70
2017-08-09T19:54:10.430Z,18.60
2017-08-09T19:56:36.843Z,18.60
2017-08-09T19:59:03.160Z,18.50
2017-08-09T20:01:29.549Z,18.60
2017-08-09T20:03:56.520Z,18.40
2017-08-09T20:06:22.941Z,18.40
2017-08-09T20:08:49.357Z,18.20
2017-08-09T20:11:15.732Z,17.90
2017-08-09T20:13:42.065Z,18.10
2017-08-09T20:16:08.392Z,17.90
2017-08-09T20:18:34.847Z,17.70
2017-08-09T20:21:01.167Z,17.80
2017-08-09T20:23:27.471Z,17.70
2017-08-09T20:25:54.060Z,17.60
2017-08-09T20:28:20.557Z,17.70
2017-08-09T20:30:47.065Z,17.60
2017-08-09T20:33:20.655Z,17.60
2017-08-09T20:35:47.033Z,17.60
2017-08-09T20:38:13.421Z,17.60
2017-08-09T20:40:39.744Z,17.50
2017-08-09T20:43:06.104Z,17.40
2017-08-09T20:45:32.436Z,17.30
2017-08-09T20:47:58.850Z,17.20
2017-08-09T20:50:30.248Z,17.20
2017-08-09T20:52:56.624Z,17.20
2017-08-09T20:55:23.691Z,17.20
2017-08-09T20:57:50.005Z,17.10
2017-08-09T21:00:16.398Z,17.10
2017-08-09T21:02:42.739Z,17.20
2017-08-09T21:05:09.128Z,17.10
2017-08-09T21:07:35.484Z,17.00
2017-08-09T21:10:01.789Z,17.00
2017-08-09T21:12:29.021Z,16.80
2017-08-09T21:14:55.818Z,16.80
2017-08-09T21:17:22.167Z,16.90
2017-08-09T21:19:48.476Z,16.80
2017-08-09T21:22:15.245Z,16.80
2017-08-09T21:24:41.794Z,16.80
2017-08-09T21:27:08.174Z,16.80
2017-08-09T21:29:34.548Z,16.70
2017-08-09T21:32:01.661Z,16.60
2017-08-09T21:34:28.112Z,16.60
2017-08-09T21:36:54.504Z,16.70
2017-08-09T21:39:20.887Z,16.60
2017-08-09T21:41:47.223Z,16.50
2017-08-09T21:44:13.701Z,16.40
2017-08-09T21:46:41.523Z,16.40
2017-08-09T21:49:07.858Z,16.30
2017-08-09T21:51:34.742Z,16.30
2017-08-09T21:54:01.120Z,16.30
2017-08-09T21:56:27.486Z,16.30
2017-08-09T21:58:53.931Z,16.40
2017-08-09T22:01:23.690Z,16.40
2017-08-09T22:03:50.027Z,16.50
2017-08-09T22:06:17.963Z,16.50
2017-08-09T22:08:44.480Z,16.50
2017-08-09T22:11:11.596Z,16.50
2017-08-09T22:13:37.908Z,16.50
2017-08-09T22:16:04.221Z,16.50
2017-08-09T22:18:30.531Z,16.50
2017-08-09T22:20:56.852Z,16.50
2017-08-09T22:23:23.186Z,16.40
2017-08-09T22:25:49.506Z,16.40
2017-08-09T22:28:15.893Z,16.40
2017-08-09T22:30:49.264Z,16.30
2017-08-09T22:33:15.581Z,16.30
2017-08-09T22:35:41.910Z,16.30
2017-08-09T22:38:08.258Z,16.30
2017-08-09T22:40:34.571Z,16.30
2017-08-09T22:43:01.619Z,16.30
2017-08-09T22:45:27.944Z,16.20
2017-08-09T22:47:54.282Z,16.20
2017-08-09T22:50:20.706Z,16.30
2017-08-09T22:52:47.077Z,16.30
2017-08-09T22:55:13.414Z,16.30
2017-08-09T22:57:39.712Z,16.20
2017-08-09T23:00:06.037Z,16.20
2017-08-09T23:02:32.361Z,16.30
2017-08-09T23:04:58.688Z,16.30
2017-08-09T23:07:24.985Z,16.30
2017-08-09T23:09:51.323Z,16.30
2017-08-09T23:12:17.669Z,16.20
2017-08-09T23:14:44.737Z,16.30
2017-08-09T23:17:11.056Z,16.30
2017-08-09T23:19:37.406Z,16.30
2017-08-09T23:22:03.712Z,16.20
2017-08-09T23:24:30.066Z,16.20
2017-08-09T23:26:56.425Z,16.20
2017-08-09T23:29:22.763Z,16.30
2017-08-09T23:31:49.144Z,16.30
2017-08-09T23:34:16.207Z,16.30
2017-08-09T23:36:42.613Z,16.30
2017-08-09T23:39:08.977Z,16.30
2017-08-09T23:41:35.331Z,16.30
2017-08-09T23:44:01.745Z,16.30
2017-08-09T23:46:28.069Z,16.20
2017-08-09T23:48:54.388Z,16.30
2017-08-09T23:51:20.805Z,16.20
2017-08-09T23:53:47.847Z,16.20
2017-08-09T23:56:14.960Z,16.20
2017-08-09T23:58:41.371Z,15.90
